createdAt,value
2023-03-20T00:02:40.686Z,7.15
2023-03-20T00:07:42.517Z,7.32
2023-03-20T00:12:45.675Z,7.58
2023-03-20T00:17:47.266Z,7.71
2023-03-20T00:22:49.656Z,7.80
2023-03-20T00:27:52.422Z,7.78
2023-03-20T00:32:55.895Z,7.77
2023-03-20T00:37:58.374Z,7.74
2023-03-20T00:43:03.107Z,7.58
2023-03-20T00:48:05.916Z,7.53
2023-03-20T00:53:11.288Z,7.72
2023-03-20T00:58:15.831Z,7.76
2023-03-20T01:03:21.336Z,7.67
2023-03-20T01:08:26.166Z,7.53
2023-03-20T01:13:30.427Z,7.61
2023-03-20T01:18:32.087Z,7.64
2023-03-20T01:23:33.972Z,7.82
2023-03-20T01:28:35.823Z,7.87
2023-03-20T01:33:38.377Z,7.90
2023-03-20T01:38:40.745Z,7.92
2023-03-20T01:43:43.271Z,7.94
2023-03-20T01:48:58.026Z,8.01
2023-03-20T01:54:08.120Z,7.99
2023-03-20T01:59:18.214Z,7.96
2023-03-20T02:04:28.509Z,7.98
2023-03-20T02:09:37.381Z,7.93
2023-03-20T02:14:46.951Z,7.91
2023-03-20T02:20:19.513Z,7.94
2023-03-20T02:25:42.613Z,7.91
2023-03-20T02:31:00.362Z,7.89
2023-03-20T02:36:38.234Z,7.94
2023-03-20T02:41:45.603Z,7.96
2023-03-20T02:47:00.130Z,7.97
2023-03-20T02:52:19.675Z,7.92
2023-03-20T02:57:51.186Z,8.00
2023-03-20T03:03:19.054Z,7.89
2023-03-20T03:08:23.860Z,7.83
2023-03-20T03:13:31.102Z,7.82
2023-03-20T03:18:35.994Z,7.69
2023-03-20T03:23:45.371Z,7.38
2023-03-20T03:28:51.768Z,7.06
2023-03-20T03:33:56.397Z,6.73
2023-03-20T03:39:17.041Z,6.35
2023-03-20T03:44:49.822Z,6.00
2023-03-20T03:49:58.897Z,5.78
2023-03-20T03:55:04.958Z,5.50
2023-03-20T04:00:08.917Z,5.25
2023-03-20T04:05:19.688Z,5.10
2023-03-20T04:10:21.439Z,4.97
2023-03-20T04:15:23.137Z,4.80
2023-03-20T04:20:24.786Z,4.81
2023-03-20T04:25:26.739Z,4.69
2023-03-20T04:30:30.464Z,5.21
2023-03-20T04:35:52.306Z,5.54
2023-03-20T04:40:54.455Z,5.76
2023-03-20T04:45:56.481Z,5.70
2023-03-20T04:50:58.333Z,5.57
2023-03-20T04:56:11.893Z,5.71
2023-03-20T05:01:14.409Z,5.71
2023-03-20T05:06:16.077Z,5.61
2023-03-20T05:11:19.273Z,5.69
2023-03-20T05:16:50.702Z,5.57
2023-03-20T05:22:21.377Z,5.66
2023-03-20T05:27:46.248Z,5.66
2023-03-20T05:33:26.210Z,5.56
2023-03-20T05:38:50.863Z,5.62
2023-03-20T05:44:11.227Z,6.39
2023-03-20T05:49:31.418Z,6.82
2023-03-20T05:54:51.682Z,7.05
2023-03-20T06:00:01.347Z,7.22
2023-03-20T06:05:15.214Z,7.42
2023-03-20T06:10:22.218Z,7.57
2023-03-20T06:15:25.897Z,7.60
2023-03-20T06:20:34.385Z,7.46
2023-03-20T06:25:38.674Z,7.43
2023-03-20T06:30:44.415Z,7.41
2023-03-20T06:35:51.492Z,7.39
2023-03-20T06:40:53.139Z,7.50
2023-03-20T06:45:54.879Z,7.66
2023-03-20T06:51:00.068Z,7.92
2023-03-20T06:56:09.668Z,8.05
2023-03-20T07:01:20.448Z,7.98
2023-03-20T07:06:22.985Z,7.94
2023-03-20T07:11:25.391Z,8.46
2023-03-20T07:16:29.479Z,8.88
2023-03-20T07:21:31.853Z,9.11
2023-03-20T07:26:34.018Z,9.28
2023-03-20T07:31:36.467Z,9.25
2023-03-20T07:36:48.311Z,9.43
2023-03-20T07:41:53.739Z,9.58
2023-03-20T07:47:12.063Z,9.87
2023-03-20T07:52:14.020Z,10.27
2023-03-20T07:57:15.726Z,11.00
2023-03-20T08:02:18.252Z,11.02
2023-03-20T08:07:19.921Z,10.65
2023-03-20T08:12:21.789Z,10.72
2023-03-20T08:17:23.606Z,10.93
2023-03-20T08:22:25.509Z,11.18
2023-03-20T08:27:27.155Z,11.15
2023-03-20T08:32:28.789Z,11.04
2023-03-20T08:37:30.611Z,11.04
2023-03-20T08:42:34.557Z,11.25
2023-03-20T08:47:36.186Z,10.88
2023-03-20T08:52:37.845Z,10.91
2023-03-20T08:57:40.608Z,10.88
2023-03-20T09:02:43.249Z,11.04
2023-03-20T09:07:45.185Z,11.19
2023-03-20T09:12:46.851Z,11.78
2023-03-20T09:17:48.498Z,11.85
2023-03-20T09:22:50.186Z,11.92
2023-03-20T09:27:55.280Z,11.70
2023-03-20T09:32:57.007Z,11.70
2023-03-20T09:37:58.691Z,11.80
2023-03-20T09:43:26.143Z,12.18
2023-03-20T09:48:49.176Z,12.83
2023-03-20T09:53:59.272Z,13.08
2023-03-20T09:59:05.212Z,12.88
2023-03-20T10:04:10.256Z,12.55
2023-03-20T10:09:21.154Z,12.45
2023-03-20T10:14:44.505Z,12.21
2023-03-20T10:19:57.358Z,12.13
2023-03-20T10:25:16.922Z,12.84
2023-03-20T10:30:38.930Z,13.11
2023-03-20T10:35:56.857Z,13.03
2023-03-20T10:40:59.235Z,12.46
2023-03-20T10:46:08.064Z,11.95
2023-03-20T10:51:22.432Z,11.87
2023-03-20T10:56:44.937Z,11.87
2023-03-20T11:01:46.641Z,11.92
2023-03-20T11:07:01.144Z,12.19
2023-03-20T11:12:04.184Z,12.43
2023-03-20T11:17:06.740Z,12.81
2023-03-20T11:22:28.838Z,13.08
2023-03-20T11:27:34.907Z,13.29
2023-03-20T11:32:45.339Z,13.89
2023-03-20T11:37:51.017Z,13.91
2023-03-20T11:43:01.886Z,13.18
2023-03-20T11:48:04.738Z,12.87
2023-03-20T11:53:24.631Z,12.75
2023-03-20T11:58:26.688Z,12.79
2023-03-20T12:03:41.801Z,12.24
2023-03-20T12:08:48.221Z,10.91
2023-03-20T12:13:51.367Z,10.16
2023-03-20T12:19:01.289Z,10.23
2023-03-20T12:24:14.894Z,10.74
2023-03-20T12:29:19.163Z,10.78
2023-03-20T12:34:28.163Z,10.61
2023-03-20T12:39:41.447Z,10.40
2023-03-20T12:44:55.820Z,10.39
2023-03-20T12:50:04.541Z,10.65
2023-03-20T12:55:26.434Z,10.49
2023-03-20T13:00:38.746Z,10.44
2023-03-20T13:05:51.663Z,10.32
2023-03-20T13:11:18.022Z,10.60
2023-03-20T13:16:34.855Z,10.73
2023-03-20T13:21:57.318Z,11.06
2023-03-20T13:27:16.868Z,11.18
2023-03-20T13:32:32.406Z,11.05
2023-03-20T13:37:40.738Z,10.90
2023-03-20T13:42:54.912Z,10.99
2023-03-20T13:47:58.274Z,10.80
2023-03-20T13:53:35.322Z,10.92
2023-03-20T13:58:45.899Z,11.01
2023-03-20T14:03:49.013Z,10.95
2023-03-20T14:08:54.513Z,10.71
2023-03-20T14:14:08.303Z,10.44
2023-03-20T14:19:25.492Z,10.44
2023-03-20T14:24:28.377Z,10.41
2023-03-20T14:29:29.997Z,10.47
2023-03-20T14:34:49.584Z,10.27
2023-03-20T14:40:00.426Z,9.80
2023-03-20T14:45:24.266Z,9.00
2023-03-20T14:50:47.673Z,8.71
2023-03-20T14:55:49.328Z,8.69
2023-03-20T15:00:50.983Z,8.73
2023-03-20T15:05:57.720Z,8.82
2023-03-20T15:11:05.861Z,8.90
2023-03-20T15:16:13.588Z,9.20
2023-03-20T15:21:17.746Z,9.28
2023-03-20T15:26:22.328Z,9.25
2023-03-20T15:31:29.746Z,9.50
2023-03-20T15:36:36.869Z,9.46
2023-03-20T15:41:39.073Z,9.32
2023-03-20T15:46:41.436Z,9.34
2023-03-20T15:51:43.465Z,9.36
2023-03-20T15:56:46.462Z,9.26
2023-03-20T16:01:51.163Z,9.30
2023-03-20T16:07:00.485Z,9.16
2023-03-20T16:12:03.157Z,9.12
2023-03-20T16:17:05.611Z,9.19
2023-03-20T16:22:46.334Z,9.18
2023-03-20T16:27:51.741Z,9.10
2023-03-20T16:33:01.726Z,8.94
2023-03-20T16:38:16.530Z,8.88
2023-03-20T16:43:23.810Z,8.96
2023-03-20T16:48:28.491Z,8.98
2023-03-20T16:53:37.921Z,8.86
2023-03-20T16:58:41.288Z,8.69
2023-03-20T17:03:58.536Z,8.61
2023-03-20T17:09:08.798Z,8.59
2023-03-20T17:14:10.418Z,8.49
2023-03-20T17:19:19.219Z,8.37
2023-03-20T17:24:20.931Z,8.37
2023-03-20T17:29:22.663Z,8.39
2023-03-20T17:34:24.670Z,8.54
2023-03-20T17:39:26.345Z,8.53
2023-03-20T17:44:28.023Z,8.50
2023-03-20T17:49:29.639Z,8.50
2023-03-20T17:54:31.507Z,8.48
2023-03-20T17:59:33.263Z,8.46
2023-03-20T18:04:35.845Z,8.35
2023-03-20T18:09:37.539Z,8.12
2023-03-20T18:14:39.341Z,7.93
2023-03-20T18:19:42.297Z,7.75
2023-03-20T18:24:45.586Z,7.75
2023-03-20T18:29:47.600Z,7.60
2023-03-20T18:34:49.223Z,7.59
2023-03-20T18:39:50.939Z,7.55
2023-03-20T18:44:52.772Z,7.45
2023-03-20T18:49:54.597Z,7.35
2023-03-20T18:54:56.461Z,7.15
2023-03-20T18:59:58.398Z,6.88
2023-03-20T19:05:00.198Z,6.59
2023-03-20T19:10:02.038Z,6.42
2023-03-20T19:15:04.287Z,6.37
2023-03-20T19:20:22.127Z,6.34
2023-03-20T19:25:24.013Z,6.47
2023-03-20T19:30:33.341Z,6.58
2023-03-20T19:35:58.907Z,6.51
2023-03-20T19:40:59.230Z,6.43
2023-03-20T19:46:01.188Z,6.37
2023-03-20T19:51:04.648Z,6.32
2023-03-20T19:56:06.775Z,6.29
2023-03-20T20:01:15.758Z,6.19
2023-03-20T20:06:20.174Z,6.23
2023-03-20T20:11:23.651Z,6.10
2023-03-20T20:16:25.537Z,5.98
2023-03-20T20:26:55.329Z,6.06
2023-03-20T20:32:01.961Z,6.17
2023-03-20T20:42:25.807Z,6.41
2023-03-20T20:47:27.861Z,6.51
2023-03-20T20:52:31.366Z,6.53
2023-03-20T20:57:33.441Z,6.55
2023-03-20T21:02:39.483Z,6.66
2023-03-20T21:07:46.307Z,6.72
2023-03-20T21:12:58.990Z,6.69
2023-03-20T21:18:02.065Z,6.82
2023-03-20T21:23:04.280Z,7.05
2023-03-20T21:28:06.797Z,7.24
2023-03-20T21:33:08.801Z,7.35
2023-03-20T21:38:55.332Z,7.42
2023-03-20T21:43:32.510Z,7.47
2023-03-20T21:49:23.966Z,7.55
2023-03-20T21:59:54.435Z,7.65
2023-03-20T22:05:24.746Z,7.72
2023-03-20T22:16:17.155Z,7.78
2023-03-20T22:21:36.445Z,7.82
2023-03-20T22:27:01.667Z,7.90
2023-03-20T22:37:37.788Z,7.90
2023-03-20T22:42:53.696Z,7.88
2023-03-20T22:47:40.740Z,7.83
2023-03-20T22:52:49.196Z,7.80
2023-03-20T22:58:06.348Z,7.82
2023-03-20T23:03:41.952Z,7.76
2023-03-20T23:08:36.176Z,7.69
2023-03-20T23:13:41.576Z,7.72
2023-03-20T23:18:43.634Z,7.68
2023-03-20T23:23:45.623Z,7.65
2023-03-20T23:28:49.423Z,7.67
2023-03-20T23:33:56.481Z,7.71
2023-03-20T23:38:58.357Z,7.68
2023-03-20T23:44:00.388Z,7.66
2023-03-20T23:49:02.362Z,7.60
2023-03-20T23:54:04.290Z,7.50
2023-03-20T23:59:20.248Z,7.42
